Time;durP1;ratioP1;P1;durP2;ratioP2;P2;SDS_P1;SDS_P2;PMS_P1;PMS_P2;Temp;Humidity;BMP_temperature;BMP_pressure;BME280_temperature;BME280_humidity;BME280_pressure;Samples;Min_cycle;Max_cycle;Signal;HPM_P1;HPM_P2
2022/10/09 00:01:23;;;;;;;8.75;4.10;;;9.70;99.90;;;;;;4975802;28;20414;-75
2022/10/09 00:03:51;;;;;;;9.93;4.25;;;9.70;99.90;;;;;;4986896;28;20392;-73
2022/10/09 00:06:25;;;;;;;7.03;4.13;;;9.70;99.90;;;;;;4990762;28;20034;-75
2022/10/09 00:08:51;;;;;;;7.45;4.03;;;9.60;99.90;;;;;;4986453;28;20113;-74
2022/10/09 00:11:24;;;;;;;6.93;3.85;;;9.60;99.90;;;;;;4987997;28;20561;-74
2022/10/09 00:13:51;;;;;;;7.88;3.55;;;9.50;99.90;;;;;;4974201;28;20721;-75
2022/10/09 00:16:18;;;;;;;6.97;3.63;;;9.50;99.90;;;;;;4974243;28;20068;-74
2022/10/09 00:18:44;;;;;;;6.68;3.28;;;9.40;99.90;;;;;;4992377;28;20101;-74
2022/10/09 00:21:25;;;;;;;8.18;3.13;;;9.40;99.90;;;;;;4971022;28;20038;-74
2022/10/09 00:23:52;;;;;;;6.85;3.30;;;9.40;99.90;;;;;;4990176;28;20031;-75
2022/10/09 00:26:19;;;;;;;9.05;3.33;;;9.30;99.90;;;;;;4970310;28;20066;-74
2022/10/09 00:28:45;;;;;;;7.18;3.95;;;9.30;99.90;;;;;;4988919;28;20056;-74
2022/10/09 00:31:11;;;;;;;5.70;3.15;;;9.30;99.90;;;;;;4989632;28;20114;-75
2022/10/09 00:33:43;;;;;;;8.93;3.92;;;9.30;99.90;;;;;;4991922;28;20495;-74
2022/10/09 00:36:12;;;;;;;9.52;4.05;;;9.30;99.90;;;;;;4986518;28;20097;-74
2022/10/09 00:38:41;;;;;;;11.13;4.05;;;9.20;99.90;;;;;;4988660;28;20030;-75
2022/10/09 00:41:07;;;;;;;8.52;3.70;;;9.30;99.90;;;;;;4986829;28;20030;-73
2022/10/09 00:43:53;;;;;;;5.47;3.65;;;9.20;99.90;;;;;;4984169;28;20073;-74
2022/10/09 00:46:32;;;;;;;10.23;3.65;;;9.20;99.90;;;;;;4995759;28;20042;-73
2022/10/09 00:49:06;;;;;;;10.57;4.32;;;9.20;99.90;;;;;;4989880;28;20026;-74
2022/10/09 00:51:46;;;;;;;7.55;3.55;;;9.20;99.90;;;;;;4989945;28;20022;-73
2022/10/09 00:54:14;;;;;;;7.28;3.78;;;9.10;99.90;;;;;;4988000;28;20030;-72
2022/10/09 00:56:43;;;;;;;7.07;3.83;;;9.10;99.90;;;;;;4992433;28;20023;-73
2022/10/09 00:59:10;;;;;;;5.28;3.22;;;9.10;99.90;;;;;;4990802;28;20502;-73
2022/10/09 01:01:42;;;;;;;9.02;3.80;;;9.00;99.90;;;;;;4970987;28;20018;-74
2022/10/09 01:04:08;;;;;;;6.50;3.78;;;9.00;99.90;;;;;;5000284;23;20557;-78
2022/10/09 01:06:58;;;;;;;9.07;3.75;;;9.00;99.90;;;;;;5002476;28;20030;-78
2022/10/09 01:09:56;;;;;;;8.80;4.22;;;9.00;99.90;;;;;;5000766;28;20528;-78
2022/10/09 01:12:50;;;;;;;10.15;4.28;;;8.90;99.90;;;;;;4994226;28;20038;-78
2022/10/09 01:15:21;;;;;;;9.20;4.05;;;8.90;99.90;;;;;;4986130;28;20064;-78
2022/10/09 01:18:09;;;;;;;8.27;3.80;;;8.80;99.90;;;;;;4983519;28;20088;-79
2022/10/09 01:20:57;;;;;;;9.23;3.92;;;8.80;99.90;;;;;;4987975;28;20121;-79
2022/10/09 01:23:46;;;;;;;9.55;4.47;;;8.80;99.90;;;;;;4989151;28;20034;-79
2022/10/09 01:26:30;;;;;;;9.38;5.00;;;8.80;99.90;;;;;;4982373;28;20023;-79
2022/10/09 01:29:01;;;;;;;13.23;4.47;;;8.70;99.90;;;;;;4984325;28;20058;-79
2022/10/09 01:31:30;;;;;;;11.73;4.40;;;8.70;99.90;;;;;;4984627;28;20275;-78
2022/10/09 01:33:58;;;;;;;14.82;4.10;;;8.70;99.90;;;;;;4988226;28;20065;-78
2022/10/09 01:36:25;;;;;;;8.63;4.53;;;8.60;99.90;;;;;;4990022;28;20121;-78
2022/10/09 01:38:52;;;;;;;11.57;4.65;;;8.60;99.90;;;;;;4987406;28;20026;-78
2022/10/09 01:41:19;;;;;;;6.72;4.35;;;8.60;99.90;;;;;;4986785;28;20058;-78
2022/10/09 01:43:44;;;;;;;9.38;4.63;;;8.60;99.90;;;;;;4981884;28;20546;-78
2022/10/09 01:46:26;;;;;;;9.68;4.45;;;8.60;99.90;;;;;;4986931;28;20065;-79
2022/10/09 01:49:14;;;;;;;8.88;4.30;;;8.50;99.90;;;;;;4985713;28;20068;-78
2022/10/09 01:51:59;;;;;;;6.03;3.90;;;8.50;99.90;;;;;;4984341;28;20050;-79
2022/10/09 01:54:41;;;;;;;;;;;8.50;99.90;;;;;;4988356;28;20031;-79
2022/10/09 01:57:09;;;;;;;10.93;4.65;;;8.50;99.90;;;;;;4986983;28;19910;-79
2022/10/09 01:59:38;;;;;;;12.38;4.22;;;8.50;99.90;;;;;;4981240;28;20096;-81
2022/10/09 02:02:06;;;;;;;9.50;4.47;;;8.40;99.90;;;;;;4983341;28;20061;-80
2022/10/09 02:04:33;;;;;;;10.07;4.28;;;8.40;99.90;;;;;;4984393;28;20049;-80
2022/10/09 02:06:59;;;;;;;12.80;4.72;;;8.40;99.90;;;;;;4984094;28;20029;-80
2022/10/09 02:09:24;;;;;;;13.63;4.47;;;8.40;99.90;;;;;;4983338;28;20035;-79
2022/10/09 02:11:56;;;;;;;10.05;4.88;;;8.40;99.90;;;;;;4986026;28;20061;-80
2022/10/09 02:14:22;;;;;;;9.45;4.85;;;8.30;99.90;;;;;;4985708;28;20053;-80
2022/10/09 02:16:57;;;;;;;11.95;5.75;;;8.30;99.90;;;;;;4986476;28;20036;-79
2022/10/09 02:19:34;;;;;;;9.90;5.10;;;8.30;99.90;;;;;;5000797;28;20042;-79
2022/10/09 02:22:30;;;;;;;10.48;4.50;;;8.30;99.90;;;;;;4997068;28;20027;-79
2022/10/09 02:25:02;;;;;;;11.88;4.93;;;8.30;99.90;;;;;;4979847;28;20118;-80
2022/10/09 02:27:29;;;;;;;10.18;4.95;;;8.30;99.90;;;;;;4984119;28;20388;-80
2022/10/09 02:29:55;;;;;;;5.72;3.85;;;8.30;99.90;;;;;;4986231;28;20033;-80
2022/10/09 02:32:21;;;;;;;8.43;4.70;;;8.20;99.90;;;;;;4990139;28;20022;-80
2022/10/09 02:34:47;;;;;;;10.00;4.88;;;8.20;99.90;;;;;;4990552;28;20026;-80
2022/10/09 02:37:13;;;;;;;8.43;3.75;;;8.20;99.90;;;;;;4990424;28;20040;-80
2022/10/09 02:39:39;;;;;;;9.57;4.43;;;8.20;99.90;;;;;;4988127;28;20394;-80
2022/10/09 02:42:05;;;;;;;10.25;3.72;;;8.20;99.90;;;;;;4988318;28;20504;-80
2022/10/09 02:44:30;;;;;;;10.45;5.05;;;8.20;99.90;;;;;;4991839;28;20021;-80
2022/10/09 02:46:56;;;;;;;12.40;5.90;;;8.20;99.90;;;;;;4993740;28;20022;-80
2022/10/09 02:49:22;;;;;;;11.05;6.13;;;8.10;99.90;;;;;;4988369;28;20061;-80
2022/10/09 02:51:47;;;;;;;13.95;6.40;;;8.10;99.90;;;;;;4991380;28;20088;-80
2022/10/09 02:54:13;;;;;;;13.02;7.07;;;8.10;99.90;;;;;;4990039;28;20037;-80
2022/10/09 02:56:39;;;;;;;11.88;6.00;;;8.10;99.90;;;;;;4990854;28;20550;-80
2022/10/09 02:59:04;;;;;;;14.43;6.75;;;8.00;99.90;;;;;;4986481;28;20106;-80
2022/10/09 03:01:30;;;;;;;12.80;6.55;;;8.00;99.90;;;;;;4988332;28;20062;-80
2022/10/09 03:03:56;;;;;;;16.30;7.32;;;8.00;99.90;;;;;;4987705;28;20027;-79
2022/10/09 03:06:26;;;;;;;14.65;6.45;;;8.00;99.90;;;;;;4987500;28;20026;-80
2022/10/09 03:08:53;;;;;;;16.60;7.18;;;7.90;99.90;;;;;;4989330;28;20014;-80
2022/10/09 03:11:21;;;;;;;13.88;7.30;;;8.00;99.90;;;;;;4993416;28;20458;-80
2022/10/09 03:13:47;;;;;;;12.93;6.55;;;7.90;99.90;;;;;;4989358;28;20046;-80
2022/10/09 03:16:15;;;;;;;13.05;6.25;;;7.90;99.90;;;;;;4991032;28;20065;-80
2022/10/09 03:18:41;;;;;;;11.27;5.93;;;7.90;99.90;;;;;;4986032;28;20034;-80
2022/10/09 03:21:15;;;;;;;13.02;7.80;;;7.80;99.90;;;;;;4990467;28;20038;-80
2022/10/09 03:23:41;;;;;;;15.90;6.68;;;7.80;99.90;;;;;;4987167;28;20054;-80
2022/10/09 03:26:10;;;;;;;14.75;7.22;;;7.80;99.90;;;;;;4989214;28;20167;-80
2022/10/09 03:28:42;;;;;;;10.77;6.10;;;7.80;99.90;;;;;;4985118;28;20034;-79
2022/10/09 03:31:08;;;;;;;12.88;6.35;;;7.80;99.90;;;;;;4982433;28;20030;-80
2022/10/09 03:33:37;;;;;;;14.10;6.85;;;7.80;99.90;;;;;;4989532;28;20479;-80
2022/10/09 03:36:04;;;;;;;13.75;5.75;;;7.80;99.90;;;;;;4983108;28;20383;-80
2022/10/09 03:38:29;;;;;;;10.32;5.55;;;7.80;99.90;;;;;;4986631;28;20129;-80
2022/10/09 03:40:58;;;;;;;9.98;6.07;;;7.80;99.90;;;;;;4987176;28;20113;-80
2022/10/09 03:43:24;;;;;;;9.73;6.10;;;7.80;99.90;;;;;;4983462;28;20498;-80
2022/10/09 03:45:49;;;;;;;14.05;7.97;;;7.80;99.90;;;;;;4984135;28;20039;-81
2022/10/09 03:48:15;;;;;;;11.40;6.10;;;7.80;99.90;;;;;;4986944;28;20037;-81
2022/10/09 03:50:41;;;;;;;11.55;6.65;;;7.80;99.90;;;;;;4979099;28;20034;-80
2022/10/09 03:53:12;;;;;;;11.52;6.95;;;7.80;99.90;;;;;;4989977;28;20082;-80
2022/10/09 03:55:38;;;;;;;12.70;6.35;;;7.80;99.90;;;;;;4989446;28;20034;-80
2022/10/09 03:58:04;;;;;;;11.32;5.85;;;7.80;99.90;;;;;;4989457;28;20026;-80
2022/10/09 04:00:30;;;;;;;11.63;6.20;;;7.90;99.90;;;;;;4984530;28;20042;-79
2022/10/09 04:02:55;;;;;;;8.75;5.50;;;7.80;99.90;;;;;;4989577;28;20036;-80
2022/10/09 04:05:21;;;;;;;80.68;8.65;;;7.80;99.90;;;;;;4986209;28;20036;-80
2022/10/09 04:07:47;;;;;;;11.02;6.22;;;7.80;99.90;;;;;;4986390;28;20023;-80
2022/10/09 04:10:13;;;;;;;13.50;5.57;;;7.70;99.90;;;;;;4983635;28;20033;-80
2022/10/09 04:12:38;;;;;;;8.90;5.28;;;7.70;99.90;;;;;;4987025;28;20121;-79
2022/10/09 04:15:05;;;;;;;9.45;5.82;;;7.70;99.90;;;;;;4991822;28;20065;-80
2022/10/09 04:17:30;;;;;;;10.60;5.55;;;7.70;99.90;;;;;;4982459;28;20145;-80
2022/10/09 04:19:56;;;;;;;11.27;5.70;;;7.70;99.90;;;;;;4987943;28;20117;-80
2022/10/09 04:22:22;;;;;;;10.32;6.80;;;7.70;99.90;;;;;;4986259;28;20033;-80
2022/10/09 04:24:47;;;;;;;8.82;5.82;;;7.70;99.90;;;;;;4983867;28;20037;-80
2022/10/09 04:27:13;;;;;;;9.07;6.10;;;7.70;99.90;;;;;;4989215;28;20033;-81
2022/10/09 04:29:39;;;;;;;11.07;6.07;;;7.70;99.90;;;;;;4986032;28;20093;-80
2022/10/09 04:32:06;;;;;;;13.23;5.90;;;7.80;99.90;;;;;;4986592;28;20030;-80
2022/10/09 04:34:31;;;;;;;11.88;6.05;;;7.70;99.90;;;;;;4989199;28;20029;-79
2022/10/09 04:36:57;;;;;;;7.43;5.78;;;7.80;99.90;;;;;;4989612;28;20038;-79
2022/10/09 04:39:23;;;;;;;14.85;5.80;;;7.70;99.90;;;;;;4987566;28;20030;-80
2022/10/09 04:41:48;;;;;;;11.77;5.90;;;7.80;99.90;;;;;;4987347;28;20073;-79
2022/10/09 04:44:14;;;;;;;9.30;5.93;;;7.70;99.90;;;;;;4987942;28;20352;-79
2022/10/09 04:46:40;;;;;;;15.98;6.25;;;7.70;99.90;;;;;;4989053;28;20060;-80
2022/10/09 04:49:05;;;;;;;19.83;6.55;;;7.70;99.90;;;;;;4990243;28;20026;-80
2022/10/09 04:51:31;;;;;;;9.60;5.50;;;7.80;99.90;;;;;;4983966;28;20113;-80
2022/10/09 04:53:57;;;;;;;11.70;6.18;;;7.70;99.90;;;;;;4989458;28;20126;-80
2022/10/09 04:56:23;;;;;;;10.40;5.85;;;7.70;99.90;;;;;;4986837;28;20039;-80
2022/10/09 04:58:49;;;;;;;9.70;5.82;;;7.70;99.90;;;;;;4984083;28;20042;-80
2022/10/09 05:01:19;;;;;;;9.20;5.13;;;7.70;99.90;;;;;;4985028;28;20030;-80
2022/10/09 05:03:44;;;;;;;8.75;5.50;;;7.70;99.90;;;;;;4984151;28;20089;-80
2022/10/09 05:06:12;;;;;;;14.23;5.38;;;7.70;99.90;;;;;;4984404;28;20026;-80
2022/10/09 05:08:38;;;;;;;11.32;4.85;;;7.60;99.90;;;;;;4986214;28;20034;-80
2022/10/09 05:11:06;;;;;;;6.28;4.28;;;7.50;99.90;;;;;;4986266;28;20038;-80
2022/10/09 05:13:35;;;;;;;39.78;6.20;;;7.50;99.90;;;;;;4986113;28;20030;-80
2022/10/09 05:16:07;;;;;;;6.60;4.30;;;7.40;99.90;;;;;;4994760;28;20037;-80
2022/10/09 05:18:33;;;;;;;8.85;5.00;;;7.40;99.90;;;;;;4987615;28;20087;-80
2022/10/09 05:21:02;;;;;;;8.35;5.43;;;7.40;99.90;;;;;;4986927;28;20038;-80
2022/10/09 05:23:27;;;;;;;8.00;4.65;;;7.40;99.90;;;;;;4984314;28;20023;-80
2022/10/09 05:25:55;;;;;;;7.53;5.32;;;7.40;99.90;;;;;;4987996;28;20049;-80
2022/10/09 05:28:20;;;;;;;7.78;5.50;;;7.40;99.90;;;;;;4984317;28;20122;-80
2022/10/09 05:30:46;;;;;;;9.00;5.78;;;7.40;99.90;;;;;;4986526;28;20835;-80
2022/10/09 05:33:12;;;;;;;7.20;5.20;;;7.40;99.90;;;;;;4985450;28;20453;-80
2022/10/09 05:35:37;;;;;;;15.05;6.00;;;7.40;99.90;;;;;;4978287;28;20034;-80
2022/10/09 05:38:03;;;;;;;12.13;6.40;;;7.50;99.90;;;;;;4974904;28;20023;-80
2022/10/09 05:40:28;;;;;;;12.27;5.95;;;7.40;99.90;;;;;;4986997;28;20034;-81
2022/10/09 05:42:54;;;;;;;8.25;5.15;;;7.50;99.90;;;;;;4983470;28;20479;-80
2022/10/09 05:45:20;;;;;;;7.65;5.32;;;7.50;99.90;;;;;;4986533;28;20624;-80
2022/10/09 05:47:45;;;;;;;7.40;5.13;;;7.50;99.90;;;;;;4986352;28;20513;-80
2022/10/09 05:50:11;;;;;;;17.27;6.32;;;7.50;99.90;;;;;;4985161;28;20486;-80
2022/10/09 05:52:38;;;;;;;17.40;6.90;;;7.50;99.90;;;;;;4982021;28;20038;-80
2022/10/09 05:55:05;;;;;;;13.00;5.70;;;7.40;99.90;;;;;;4983728;28;20429;-80
2022/10/09 05:57:31;;;;;;;10.60;5.90;;;7.40;99.90;;;;;;4986097;28;20077;-80
2022/10/09 05:59:57;;;;;;;11.43;5.68;;;7.40;99.90;;;;;;4982585;28;20454;-81
2022/10/09 06:02:22;;;;;;;8.30;5.63;;;7.40;99.90;;;;;;4986858;28;20029;-81
2022/10/09 06:04:48;;;;;;;9.88;5.60;;;7.40;99.90;;;;;;4989740;28;20124;-80
2022/10/09 06:07:14;;;;;;;7.50;5.25;;;7.30;99.90;;;;;;4990796;28;20019;-81
2022/10/09 06:09:39;;;;;;;8.20;5.22;;;7.40;99.90;;;;;;4990809;28;20506;-80
2022/10/09 06:12:05;;;;;;;8.48;6.30;;;7.30;99.90;;;;;;4990625;28;20058;-81
2022/10/09 06:14:30;;;;;;;7.63;5.97;;;7.30;99.90;;;;;;4987554;28;20050;-81
2022/10/09 06:16:57;;;;;;;7.97;5.20;;;7.30;99.90;;;;;;4987207;28;20046;-81
2022/10/09 06:19:23;;;;;;;8.35;5.43;;;7.30;99.90;;;;;;4987759;28;20035;-80
2022/10/09 06:21:49;;;;;;;8.85;5.97;;;7.30;99.90;;;;;;4985339;28;20026;-80
2022/10/09 06:24:23;;;;;;;11.48;6.40;;;7.40;99.90;;;;;;4991181;28;20169;-80
2022/10/09 06:26:48;;;;;;;;;;;7.30;99.90;;;;;;4986738;28;20057;-80
2022/10/09 06:29:14;;;;;;;8.82;5.05;;;7.40;99.90;;;;;;4989794;28;20256;-80
2022/10/09 06:31:40;;;;;;;8.02;6.05;;;7.40;99.90;;;;;;4987654;28;20037;-80
2022/10/09 06:34:06;;;;;;;11.30;5.20;;;7.40;99.90;;;;;;4989656;28;20480;-79
2022/10/09 06:36:33;;;;;;;9.68;5.63;;;7.40;99.90;;;;;;4987425;28;20035;-80
2022/10/09 06:39:01;;;;;;;8.98;5.68;;;7.40;99.90;;;;;;4990041;28;20113;-79
2022/10/09 06:41:28;;;;;;;7.55;5.13;;;7.50;99.90;;;;;;4991026;28;20280;-79
2022/10/09 06:43:59;;;;;;;6.72;5.13;;;7.50;99.90;;;;;;4987870;28;20027;-80
2022/10/09 06:46:28;;;;;;;9.02;5.70;;;7.60;99.90;;;;;;4990084;28;20081;-79
2022/10/09 06:48:54;;;;;;;10.02;5.80;;;7.60;99.90;;;;;;4981349;28;20026;-81
2022/10/09 06:51:22;;;;;;;9.40;6.18;;;7.60;99.90;;;;;;4985207;28;20030;-79
2022/10/09 06:53:53;;;;;;;8.02;5.88;;;7.60;99.90;;;;;;4984340;28;20129;-80
2022/10/09 06:56:21;;;;;;;13.05;6.78;;;7.70;99.90;;;;;;4994532;28;20034;-79
2022/10/09 06:58:47;;;;;;;10.05;6.32;;;7.70;99.90;;;;;;4993693;28;20515;-79
2022/10/09 07:01:18;;;;;;;15.10;6.72;;;7.70;99.90;;;;;;4984163;28;20026;-80
2022/10/09 07:03:47;;;;;;;12.73;6.95;;;7.70;99.90;;;;;;4988077;28;20038;-80
2022/10/09 07:06:14;;;;;;;7.60;5.78;;;7.80;99.90;;;;;;4991889;28;20067;-80
2022/10/09 07:08:42;;;;;;;9.60;6.07;;;7.80;99.90;;;;;;4988468;28;20022;-80
2022/10/09 07:11:23;;;;;;;10.10;5.93;;;7.90;99.90;;;;;;4985973;28;20568;-81
2022/10/09 07:13:51;;;;;;;7.93;5.53;;;7.80;99.90;;;;;;4986424;28;20040;-80
2022/10/09 07:16:23;;;;;;;10.25;5.25;;;7.90;99.90;;;;;;4988604;28;20038;-80
2022/10/09 07:18:49;;;;;;;12.20;5.78;;;8.00;99.90;;;;;;4988270;28;20035;-80
2022/10/09 07:21:15;;;;;;;9.68;5.97;;;8.00;99.90;;;;;;4984448;28;20041;-80
2022/10/09 07:23:41;;;;;;;9.88;6.35;;;8.00;99.90;;;;;;4987053;28;20035;-80
2022/10/09 07:26:14;;;;;;;8.60;6.25;;;8.10;99.90;;;;;;4989689;28;20029;-80
2022/10/09 07:28:43;;;;;;;8.77;5.82;;;8.10;99.90;;;;;;4984873;28;20018;-80
2022/10/09 07:31:11;;;;;;;9.27;5.82;;;8.20;99.90;;;;;;4984855;28;20187;-80
2022/10/09 07:33:36;;;;;;;9.05;6.20;;;8.20;99.90;;;;;;4989648;28;20101;-80
2022/10/09 07:36:04;;;;;;;9.65;5.80;;;8.20;99.90;;;;;;4989511;28;20109;-80
2022/10/09 07:38:29;;;;;;;9.07;5.20;;;8.30;99.90;;;;;;4990620;28;20034;-82
2022/10/09 07:41:04;;;;;;;36.85;22.42;;;8.40;99.90;;;;;;4986220;28;20030;-82
2022/10/09 07:43:29;;;;;;;13.95;8.18;;;8.40;99.90;;;;;;4989686;28;20026;-80
2022/10/09 07:45:59;;;;;;;9.70;6.97;;;8.40;99.90;;;;;;4987666;28;20375;-81
2022/10/09 07:48:26;;;;;;;10.60;7.00;;;8.50;99.90;;;;;;4988972;28;20054;-81
2022/10/09 07:50:51;;;;;;;13.48;5.63;;;8.60;99.90;;;;;;4981799;28;20041;-81
2022/10/09 07:53:17;;;;;;;9.50;6.60;;;8.60;99.90;;;;;;4972779;28;20034;-82
2022/10/09 07:55:47;;;;;;;9.50;6.97;;;8.70;99.90;;;;;;4983369;28;20429;-81
2022/10/09 07:58:14;;;;;;;15.45;9.52;;;8.80;99.90;;;;;;4959883;28;20674;-81
2022/10/09 08:00:40;;;;;;;10.60;7.05;;;8.90;99.90;;;;;;4982588;28;20080;-81
2022/10/09 08:03:06;;;;;;;8.77;6.13;;;9.00;99.90;;;;;;4983570;28;20030;-81
2022/10/09 08:05:31;;;;;;;12.40;6.45;;;9.00;99.90;;;;;;4977577;28;20026;-82
2022/10/09 08:07:57;;;;;;;12.98;6.18;;;9.10;99.90;;;;;;4982198;28;20396;-81
2022/10/09 08:10:29;;;;;;;11.02;5.97;;;9.10;99.90;;;;;;4977988;28;20736;-81
2022/10/09 08:12:55;;;;;;;9.88;6.03;;;9.20;99.90;;;;;;4980083;28;20483;-79
2022/10/09 08:15:20;;;;;;;10.38;6.45;;;9.30;99.90;;;;;;4985214;28;20049;-81
2022/10/09 08:17:46;;;;;;;9.25;5.88;;;9.30;99.90;;;;;;4983514;28;20027;-81
2022/10/09 08:20:12;;;;;;;12.95;6.47;;;9.40;99.90;;;;;;4982574;28;20061;-82
2022/10/09 08:22:37;;;;;;;10.30;6.55;;;9.40;99.90;;;;;;4982442;28;20035;-81
2022/10/09 08:25:03;;;;;;;8.23;6.10;;;9.50;99.90;;;;;;4988298;28;20478;-81
2022/10/09 08:27:29;;;;;;;8.85;6.03;;;9.60;99.90;;;;;;4984169;28;20032;-81
2022/10/09 08:29:54;;;;;;;10.50;6.25;;;9.70;99.90;;;;;;4984476;28;20037;-81
2022/10/09 08:32:20;;;;;;;9.63;6.90;;;9.70;99.90;;;;;;4991507;28;20485;-81
2022/10/09 08:34:46;;;;;;;11.20;6.93;;;9.80;99.90;;;;;;4986055;28;20444;-81
2022/10/09 08:37:12;;;;;;;12.50;7.65;;;9.90;99.90;;;;;;4988376;28;20371;-81
2022/10/09 08:39:37;;;;;;;11.88;6.75;;;9.90;99.90;;;;;;4986943;28;20096;-81
2022/10/09 08:42:04;;;;;;;10.73;7.03;;;10.00;99.90;;;;;;4990282;28;20044;-81
2022/10/09 08:44:32;;;;;;;39.88;19.63;;;10.10;99.90;;;;;;4985713;28;20479;-81
2022/10/09 08:47:20;;;;;;;59.05;28.15;;;10.20;99.90;;;;;;4989454;28;20490;-81
2022/10/09 08:50:21;;;;;;;203.82;93.68;;;10.30;99.90;;;;;;4978079;28;20130;-81
2022/10/09 08:53:12;;;;;;;100.55;45.67;;;10.50;99.90;;;;;;4957845;28;20038;-81
2022/10/09 08:55:48;;;;;;;138.18;53.55;;;10.70;99.90;;;;;;4984445;28;20045;-81
2022/10/09 08:58:17;;;;;;;78.68;31.48;;;10.80;99.90;;;;;;4989369;28;20110;-80
2022/10/09 09:01:11;;;;;;;67.88;26.70;;;10.90;99.90;;;;;;4988430;28;20034;-81
2022/10/09 09:03:48;;;;;;;158.75;56.08;;;11.10;99.90;;;;;;4993267;28;20113;-81
2022/10/09 09:06:29;;;;;;;200.35;75.88;;;11.20;99.90;;;;;;4985190;28;20018;-81
2022/10/09 09:08:57;;;;;;;209.20;72.85;;;11.30;99.90;;;;;;4981264;28;20040;-81
2022/10/09 09:12:00;;;;;;;251.30;95.93;;;11.40;99.90;;;;;;4984321;28;20057;-81
2022/10/09 09:15:05;;;;;;;338.10;123.70;;;11.50;99.90;;;;;;4990051;28;20026;-81
2022/10/09 09:17:36;;;;;;;109.57;40.03;;;11.70;99.90;;;;;;4986014;28;20068;-80
2022/10/09 09:20:19;;;;;;;89.50;35.97;;;11.70;99.90;;;;;;4985082;28;20069;-81
2022/10/09 09:22:48;;;;;;;9.10;4.17;;;11.90;99.90;;;;;;4992135;28;20029;-81
2022/10/09 09:25:23;;;;;;;133.95;58.42;;;12.00;99.90;;;;;;4988100;28;20028;-81
2022/10/09 09:27:52;;;;;;;396.73;196.45;;;12.10;99.90;;;;;;4982036;28;20125;-81
2022/10/09 09:30:31;;;;;;;466.10;230.52;;;12.20;99.90;;;;;;4988126;28;20030;-81
2022/10/09 09:33:15;;;;;;;28.70;16.45;;;12.50;99.90;;;;;;4985636;28;20056;-81
2022/10/09 09:36:06;;;;;;;68.32;39.03;;;12.60;99.90;;;;;;4990198;28;20030;-81
2022/10/09 09:38:31;;;;;;;80.07;49.63;;;12.80;99.90;;;;;;4987539;28;20050;-81
2022/10/09 09:40:57;;;;;;;10.32;6.00;;;12.90;99.90;;;;;;4989327;28;20031;-81
2022/10/09 09:43:25;;;;;;;5.90;2.63;;;13.00;99.90;;;;;;4989259;28;20518;-81
2022/10/09 09:45:53;;;;;;;24.65;16.77;;;13.10;99.90;;;;;;4986762;28;20030;-81
2022/10/09 09:48:36;;;;;;;43.63;31.75;;;13.20;99.90;;;;;;4993186;28;20029;-82
2022/10/09 09:51:13;;;;;;;8.48;4.85;;;13.20;99.90;;;;;;4984933;28;20109;-82
2022/10/09 09:53:48;;;;;;;5.07;2.97;;;13.30;99.90;;;;;;4988647;28;20577;-81
2022/10/09 09:56:15;;;;;;;4.38;2.25;;;13.40;99.90;;;;;;4988465;28;20108;-81
2022/10/09 09:58:46;;;;;;;5.15;2.10;;;13.50;99.90;;;;;;4988581;28;20395;-82
2022/10/09 10:01:24;;;;;;;2.88;1.25;;;13.60;99.90;;;;;;4984291;28;20026;-81
2022/10/09 10:03:53;;;;;;;5.97;1.50;;;13.80;99.90;;;;;;4984677;28;20636;-81
2022/10/09 10:06:42;;;;;;;4.47;2.15;;;13.90;99.90;;;;;;4983258;28;20498;-82
2022/10/09 10:09:16;;;;;;;3.88;1.77;;;14.00;99.90;;;;;;4981558;28;20475;-83
2022/10/09 10:11:57;;;;;;;3.83;1.65;;;14.00;99.90;;;;;;4978014;28;20030;-81
2022/10/09 10:14:24;;;;;;;2.85;1.50;;;14.00;99.90;;;;;;4980144;28;20030;-81
2022/10/09 10:16:53;;;;;;;5.13;1.42;;;14.10;99.90;;;;;;4994075;28;20767;-80
2022/10/09 10:19:37;;;;;;;2.78;1.70;;;14.10;99.90;;;;;;4986126;28;20038;-82
2022/10/09 10:22:06;;;;;;;3.10;1.45;;;14.10;99.90;;;;;;4985051;28;20035;-83
2022/10/09 10:24:37;;;;;;;3.45;1.50;;;14.10;99.90;;;;;;4984403;28;20026;-83
2022/10/09 10:27:17;;;;;;;2.40;1.35;;;14.10;99.90;;;;;;4989372;28;20590;-83
2022/10/09 10:29:45;;;;;;;3.17;1.75;;;14.20;99.90;;;;;;4957388;28;20057;-82
2022/10/09 10:32:26;;;;;;;3.83;1.60;;;14.30;99.90;;;;;;4953429;28;20485;-81
2022/10/09 10:35:33;;;;;;;4.00;1.60;;;14.30;99.90;;;;;;4974662;28;20565;-81
2022/10/09 10:38:05;;;;;;;4.63;1.98;;;14.30;99.90;;;;;;4989031;28;20112;-83
2022/10/09 10:40:43;;;;;;;6.35;1.60;;;14.30;99.90;;;;;;4987822;28;20076;-82
2022/10/09 10:43:08;;;;;;;4.00;1.55;;;14.30;99.90;;;;;;4988485;28;20417;-84
2022/10/09 10:45:50;;;;;;;4.45;2.45;;;14.40;99.90;;;;;;4985634;28;20030;-83
2022/10/09 10:48:25;;;;;;;6.30;1.58;;;14.40;99.90;;;;;;4986686;28;20093;-83
2022/10/09 10:51:00;;;;;;;2.97;1.70;;;14.40;99.90;;;;;;4986498;28;20061;-83
2022/10/09 10:54:12;;;;;;;3.38;1.55;;;14.50;99.90;;;;;;4988157;28;20045;-83
2022/10/09 10:56:42;;;;;;;2.97;1.60;;;14.50;99.90;;;;;;4953024;28;20042;-81
2022/10/09 10:59:36;;;;;;;4.38;1.40;;;14.60;99.90;;;;;;4980238;28;20060;-83
2022/10/09 11:02:20;;;;;;;4.22;1.30;;;14.60;99.90;;;;;;4987090;28;20034;-87
2022/10/09 11:05:21;;;;;;;2.97;1.65;;;14.70;99.90;;;;;;4994845;28;20026;-83
2022/10/09 11:08:15;;;;;;;2.97;1.50;;;14.70;99.90;;;;;;4984749;28;20438;-82
2022/10/09 11:11:08;;;;;;;2.17;1.13;;;14.80;99.80;;;;;;5004197;28;20034;-82
2022/10/09 11:13:46;;;;;;;4.07;1.95;;;14.80;99.80;;;;;;4984870;28;20121;-82
2022/10/09 11:16:35;;;;;;;5.15;1.80;;;14.90;99.90;;;;;;4992470;28;20561;-82
2022/10/09 11:19:20;;;;;;;2.97;1.40;;;14.90;99.90;;;;;;4984200;28;20033;-81
2022/10/09 11:21:57;;;;;;;2.83;1.27;;;14.90;99.90;;;;;;4990288;28;20565;-82
2022/10/09 11:24:51;;;;;;;3.38;1.23;;;15.00;99.40;;;;;;4988082;28;20390;-85
2022/10/09 11:27:19;;;;;;;3.30;1.20;;;15.00;99.30;;;;;;4993391;28;20034;-82
2022/10/09 11:29:57;;;;;;;4.78;1.27;;;15.00;99.50;;;;;;4991917;28;20334;-81
2022/10/09 11:32:34;;;;;;;6.03;1.77;;;15.10;99.30;;;;;;4990513;28;20398;-80
2022/10/09 11:35:08;;;;;;;5.63;1.50;;;15.10;99.30;;;;;;4986570;28;20108;-80
2022/10/09 11:37:38;;;;;;;6.22;1.88;;;15.10;99.50;;;;;;4990012;28;20029;-80
2022/10/09 11:40:21;;;;;;;2.38;1.50;;;15.20;99.70;;;;;;4990686;28;20041;-80
2022/10/09 11:43:01;;;;;;;3.47;1.55;;;15.10;99.40;;;;;;4986026;28;20026;-81
2022/10/09 11:45:46;;;;;;;5.28;1.30;;;15.20;99.30;;;;;;4991145;28;20133;-81
2022/10/09 11:48:31;;;;;;;6.53;1.70;;;15.20;99.20;;;;;;4991271;28;20027;-81
2022/10/09 11:51:03;;;;;;;3.30;1.10;;;15.20;99.30;;;;;;5003799;28;20495;-79
2022/10/09 11:53:33;;;;;;;3.08;1.35;;;15.20;99.50;;;;;;4986594;28;20391;-79
2022/10/09 11:56:04;;;;;;;3.90;1.20;;;15.20;99.40;;;;;;4989560;28;20057;-80
2022/10/09 11:58:30;;;;;;;3.28;1.10;;;15.30;99.30;;;;;;4987486;28;20034;-81
2022/10/09 12:01:18;;;;;;;3.75;1.23;;;15.30;99.40;;;;;;4989094;28;20037;-82
2022/10/09 12:03:43;;;;;;;5.15;1.23;;;15.30;99.10;;;;;;4987840;28;20497;-82
2022/10/09 12:06:16;;;;;;;1.98;1.02;;;15.30;99.10;;;;;;4989996;28;20054;-84
2022/10/09 12:09:18;;;;;;;2.53;1.20;;;15.40;98.90;;;;;;4985855;28;20044;-81
2022/10/09 12:11:58;;;;;;;3.47;1.20;;;15.40;99.20;;;;;;4981190;28;20561;-81
2022/10/09 12:14:27;;;;;;;10.35;2.78;;;15.40;99.20;;;;;;4990020;28;20125;-82
2022/10/09 12:16:53;;;;;;;3.67;1.25;;;15.40;99.40;;;;;;4984452;28;20110;-82
2022/10/09 12:19:36;;;;;;;2.97;1.50;;;15.40;99.50;;;;;;4994590;28;20479;-81
2022/10/09 12:22:05;;;;;;;2.38;1.00;;;15.40;99.40;;;;;;4984820;28;20031;-81
2022/10/09 12:24:38;;;;;;;3.50;1.42;;;15.40;99.40;;;;;;4984773;28;20058;-81
2022/10/09 12:27:04;;;;;;;3.15;1.33;;;15.40;99.60;;;;;;4983846;28;20065;-83
2022/10/09 12:29:44;;;;;;;2.65;0.95;;;15.40;99.60;;;;;;4980514;28;20033;-82
2022/10/09 12:32:24;;;;;;;3.55;1.38;;;15.40;99.50;;;;;;4985696;28;20096;-83
2022/10/09 12:34:51;;;;;;;3.90;1.30;;;15.50;99.40;;;;;;4984552;28;20474;-83
2022/10/09 12:37:29;;;;;;;5.47;0.90;;;15.50;99.50;;;;;;4983728;28;20441;-82
2022/10/09 12:40:16;;;;;;;4.50;1.25;;;15.50;99.70;;;;;;4985943;28;20556;-83
2022/10/09 12:42:43;;;;;;;6.47;1.58;;;15.50;99.80;;;;;;4989387;28;20478;-82
2022/10/09 12:45:18;;;;;;;2.83;1.20;;;15.60;99.60;;;;;;4983637;28;20030;-83
2022/10/09 12:47:44;;;;;;;3.45;1.27;;;15.60;99.60;;;;;;4986115;28;20387;-81
2022/10/09 12:50:16;;;;;;;2.72;1.13;;;15.60;99.70;;;;;;4922663;28;20046;-82
2022/10/09 12:52:57;;;;;;;1.27;0.98;;;15.70;99.70;;;;;;4990565;28;20117;-82
2022/10/09 12:55:39;;;;;;;4.95;1.60;;;15.70;99.50;;;;;;4984625;28;20030;-82
2022/10/09 12:58:12;;;;;;;2.97;1.42;;;15.70;99.80;;;;;;5004246;28;20038;-82
2022/10/09 13:00:39;;;;;;;4.68;1.40;;;15.70;99.70;;;;;;4986321;28;20038;-82
2022/10/09 13:03:05;;;;;;;2.40;1.17;;;15.70;99.90;;;;;;4989260;28;20026;-83
2022/10/09 13:05:38;;;;;;;2.33;1.48;;;15.70;99.90;;;;;;4985530;28;20624;-82
2022/10/09 13:08:14;;;;;;;1.88;1.27;;;15.70;99.90;;;;;;4980278;28;20030;-83
2022/10/09 13:10:39;;;;;;;2.15;1.15;;;15.70;99.90;;;;;;4983863;28;20038;-82